createdAt,value
2023-05-01T00:01:19.383Z,100770.66
2023-05-01T00:03:47.754Z,100767.34
2023-05-01T00:06:15.434Z,100726.38
2023-05-01T00:08:43.304Z,100772.81
2023-05-01T00:11:12.542Z,100765.66
2023-05-01T00:13:40.074Z,100767.84
2023-05-01T00:16:12.046Z,100761.88
2023-05-01T00:18:39.945Z,100701.34
2023-05-01T00:21:07.493Z,100765.87
2023-05-01T00:23:35.406Z,100769.34
2023-05-01T00:26:03.269Z,100766.97
2023-05-01T00:28:30.770Z,100762.13
2023-05-01T00:30:58.509Z,100762.94
2023-05-01T00:33:26.283Z,100713.78
2023-05-01T00:35:53.655Z,100756.97
2023-05-01T00:38:21.196Z,100758.75
2023-05-01T00:40:49.094Z,100760.00
2023-05-01T00:43:16.661Z,100765.63
2023-05-01T00:45:46.223Z,100763.31
2023-05-01T00:48:15.066Z,100765.94
2023-05-01T00:50:44.327Z,100777.16
2023-05-01T00:53:12.482Z,100766.72
2023-05-01T00:55:42.274Z,100767.56
2023-05-01T00:58:11.204Z,100722.13
2023-05-01T01:00:38.976Z,100769.50
2023-05-01T01:03:06.969Z,100771.56
2023-05-01T01:05:42.107Z,100769.88
2023-05-01T01:08:55.048Z,100779.97
2023-05-01T01:11:41.191Z,100780.47
2023-05-01T01:14:13.755Z,100779.16
2023-05-01T01:16:57.554Z,100787.19
2023-05-01T01:19:34.486Z,100778.12
2023-05-01T01:22:13.654Z,100783.78
2023-05-01T01:24:47.920Z,100780.31
2023-05-01T01:27:46.711Z,100776.16
2023-05-01T01:30:33.596Z,100783.22
2023-05-01T01:33:23.761Z,100777.00
2023-05-01T01:35:57.743Z,100768.66
2023-05-01T01:38:36.273Z,100773.19
2023-05-01T01:41:33.385Z,100724.41
2023-05-01T01:44:06.528Z,100772.75
2023-05-01T01:46:38.934Z,100777.75
2023-05-01T01:49:12.158Z,100777.91
2023-05-01T01:51:41.988Z,100779.19
2023-05-01T01:54:13.378Z,100773.19
2023-05-01T01:56:42.364Z,100770.13
2023-05-01T01:59:11.283Z,100768.94
2023-05-01T02:01:42.231Z,100771.56
2023-05-01T02:04:12.216Z,100730.38
2023-05-01T02:06:41.671Z,100780.91
2023-05-01T02:09:10.695Z,100771.72
2023-05-01T02:11:41.095Z,100781.53
2023-05-01T02:14:11.336Z,100776.97
2023-05-01T02:16:40.982Z,100781.66
2023-05-01T02:19:09.014Z,100776.53
2023-05-01T02:21:39.064Z,100775.84
2023-05-01T02:24:08.005Z,100781.09
2023-05-01T02:26:41.682Z,100782.97
2023-05-01T02:29:10.872Z,100778.72
2023-05-01T02:31:38.871Z,100753.03
2023-05-01T02:34:06.431Z,100787.13
2023-05-01T02:36:34.258Z,100785.69
2023-05-01T02:39:02.448Z,100765.09
2023-05-01T02:41:32.225Z,100794.06
2023-05-01T02:44:05.798Z,100791.81
2023-05-01T02:46:36.958Z,100797.44
2023-05-01T02:49:06.565Z,100806.53
2023-05-01T02:51:36.697Z,100805.31
2023-05-01T02:54:04.834Z,100800.94
2023-05-01T02:56:32.685Z,100805.72
2023-05-01T02:59:00.619Z,100747.06
2023-05-01T03:01:28.529Z,100793.47
2023-05-01T03:03:56.566Z,100796.56
2023-05-01T03:06:24.131Z,100802.03
2023-05-01T03:08:51.795Z,100800.38
2023-05-01T03:11:19.565Z,100806.47
2023-05-01T03:13:47.949Z,100808.12
2023-05-01T03:16:15.556Z,100803.69
2023-05-01T03:18:43.740Z,100810.63
2023-05-01T03:21:12.850Z,100803.84
2023-05-01T03:23:41.765Z,100798.34
2023-05-01T03:26:09.479Z,100794.88
2023-05-01T03:28:37.002Z,100791.56
2023-05-01T03:31:04.878Z,100795.34
2023-05-01T03:33:32.853Z,100735.03
2023-05-01T03:36:02.311Z,100792.97
2023-05-01T03:38:31.679Z,100733.88
2023-05-01T03:41:12.752Z,100792.50
2023-05-01T03:43:44.008Z,100783.22
2023-05-01T03:46:12.407Z,100788.78
2023-05-01T03:48:40.304Z,100794.66
2023-05-01T03:51:07.992Z,100750.78
2023-05-01T03:53:36.866Z,100803.81
2023-05-01T03:56:05.497Z,100798.34
2023-05-01T03:58:33.134Z,100804.19
2023-05-01T04:01:01.192Z,100809.19
2023-05-01T04:03:29.733Z,100758.28
2023-05-01T04:05:57.610Z,100800.94
2023-05-01T04:08:25.345Z,100809.66
2023-05-01T04:10:53.173Z,100805.94
2023-05-01T04:13:20.687Z,100805.09
2023-05-01T04:15:48.884Z,100757.31
2023-05-01T04:18:17.543Z,100807.38
2023-05-01T04:20:45.892Z,100802.13
2023-05-01T04:23:13.463Z,100814.16
2023-05-01T04:25:41.482Z,100813.19
2023-05-01T04:28:13.192Z,100815.31
2023-05-01T04:30:41.233Z,100812.34
2023-05-01T04:33:11.611Z,100810.28
2023-05-01T04:35:40.211Z,100818.41
2023-05-01T04:38:10.513Z,100821.59
2023-05-01T04:40:38.193Z,100821.09
2023-05-01T04:43:05.660Z,100823.94
2023-05-01T04:45:33.570Z,100819.75
2023-05-01T04:48:01.626Z,100825.47
2023-05-01T04:50:29.179Z,100823.28
2023-05-01T04:52:57.371Z,100822.78
2023-05-01T04:55:25.107Z,100824.31
2023-05-01T04:57:54.082Z,100820.78
2023-05-01T05:00:22.256Z,100775.87
2023-05-01T05:02:50.684Z,100827.00
2023-05-01T05:05:18.540Z,100828.06
2023-05-01T05:07:47.144Z,100840.53
2023-05-01T05:10:19.591Z,100835.72
2023-05-01T05:12:48.433Z,100838.25
2023-05-01T05:15:16.578Z,100835.31
2023-05-01T05:17:45.641Z,100832.66
2023-05-01T05:20:14.096Z,100788.63
2023-05-01T05:22:41.693Z,100844.25
2023-05-01T05:25:10.768Z,100843.69
2023-05-01T05:27:38.506Z,100832.94
2023-05-01T05:30:06.870Z,100835.84
2023-05-01T05:32:35.035Z,100786.09
2023-05-01T05:35:03.496Z,100837.06
2023-05-01T05:37:30.922Z,100837.37
2023-05-01T05:39:58.829Z,100845.28
2023-05-01T05:42:27.363Z,100798.63
2023-05-01T05:44:54.852Z,100845.16
2023-05-01T05:47:22.617Z,100855.69
2023-05-01T05:49:50.522Z,100852.25
2023-05-01T05:52:17.982Z,100852.97
2023-05-01T05:54:45.586Z,100848.09
2023-05-01T05:57:13.471Z,100856.84
2023-05-01T05:59:42.152Z,100859.66
2023-05-01T06:02:10.098Z,100852.28
2023-05-01T06:04:38.398Z,100802.16
2023-05-01T06:07:06.361Z,100851.34
2023-05-01T06:09:33.974Z,100858.81
2023-05-01T06:12:02.137Z,100850.22
2023-05-01T06:14:30.786Z,100863.81
2023-05-01T06:16:58.300Z,100853.56
2023-05-01T06:19:26.216Z,100854.94
2023-05-01T06:21:54.363Z,100857.97
2023-05-01T06:24:22.147Z,100861.00
2023-05-01T06:26:50.171Z,100864.06
2023-05-01T06:29:17.698Z,100812.41
2023-05-01T06:31:45.759Z,100855.97
2023-05-01T06:34:13.536Z,100859.56
2023-05-01T06:36:44.090Z,100856.38
2023-05-01T06:39:11.720Z,100865.50
2023-05-01T06:41:39.581Z,100866.28
2023-05-01T06:44:07.163Z,100864.94
2023-05-01T06:46:34.586Z,100868.22
2023-05-01T06:49:02.352Z,100823.28
2023-05-01T06:51:31.466Z,100875.72
2023-05-01T06:53:59.088Z,100876.09
2023-05-01T06:56:26.847Z,100877.22
2023-05-01T06:58:54.338Z,100827.37
2023-05-01T07:01:22.423Z,100871.00
2023-05-01T07:03:50.571Z,100882.78
2023-05-01T07:06:18.402Z,100871.91
2023-05-01T07:08:45.837Z,100870.28
2023-05-01T07:11:13.610Z,100867.37
2023-05-01T07:13:41.242Z,100847.94
2023-05-01T07:16:09.298Z,100869.59
2023-05-01T07:18:37.896Z,100868.41
2023-05-01T07:21:05.684Z,100865.28
2023-05-01T07:23:33.167Z,100849.69
2023-05-01T07:26:01.045Z,100820.91
2023-05-01T07:28:28.638Z,100866.09
2023-05-01T07:30:56.102Z,100828.94
2023-05-01T07:33:26.181Z,100871.69
2023-05-01T07:35:53.884Z,100857.81
2023-05-01T07:38:21.544Z,100867.72
2023-05-01T07:40:52.891Z,100829.31
2023-05-01T07:43:20.347Z,100870.75
2023-05-01T07:46:00.343Z,100864.78
2023-05-01T07:48:28.962Z,100875.72
2023-05-01T07:50:57.118Z,100867.59
2023-05-01T07:53:24.687Z,100828.75
2023-05-01T07:55:52.635Z,100873.09
2023-05-01T07:58:20.520Z,100872.13
2023-05-01T08:00:48.033Z,100872.13
2023-05-01T08:03:16.160Z,100827.66
2023-05-01T08:05:43.848Z,100870.78
2023-05-01T08:08:13.288Z,100872.13
2023-05-01T08:10:41.137Z,100863.66
2023-05-01T08:13:08.578Z,100872.59
2023-05-01T08:15:39.067Z,100855.81
2023-05-01T08:18:06.847Z,100832.00
2023-05-01T08:20:36.116Z,100876.56
2023-05-01T08:23:03.698Z,100872.41
2023-05-01T08:25:32.331Z,100866.31
2023-05-01T08:28:00.492Z,100876.19
2023-05-01T08:30:28.030Z,100821.44
2023-05-01T08:32:56.002Z,100867.59
2023-05-01T08:35:23.637Z,100860.56
2023-05-01T08:37:51.167Z,100856.91
2023-05-01T08:40:19.041Z,100869.25
2023-05-01T08:42:46.572Z,100825.28
2023-05-01T08:45:15.993Z,100864.81
2023-05-01T08:47:44.978Z,100864.91
2023-05-01T08:50:14.042Z,100865.59
2023-05-01T08:52:43.322Z,100866.16
2023-05-01T08:55:14.762Z,100869.12
2023-05-01T08:57:46.815Z,100868.09
2023-05-01T09:00:19.874Z,100820.03
2023-05-01T09:02:49.938Z,100865.16
2023-05-01T09:05:19.237Z,100865.03
2023-05-01T09:07:48.051Z,100866.53
2023-05-01T09:10:20.255Z,100868.28
2023-05-01T09:12:52.742Z,100863.94
2023-05-01T09:15:21.585Z,100862.72
2023-05-01T09:17:50.801Z,100863.06
2023-05-01T09:20:19.809Z,100820.37
2023-05-01T09:22:47.820Z,100815.38
2023-05-01T09:25:15.662Z,100856.31
2023-05-01T09:27:44.324Z,100851.97
2023-05-01T09:30:33.603Z,100863.84
2023-05-01T09:33:14.748Z,100838.94
2023-05-01T09:35:57.112Z,100804.19
2023-05-01T09:38:27.360Z,100844.53
2023-05-01T09:40:57.058Z,100849.00
2023-05-01T09:43:29.715Z,100844.06
2023-05-01T09:46:06.696Z,100842.91
2023-05-01T09:48:36.052Z,100848.25
2023-05-01T09:51:33.107Z,100835.56
2023-05-01T09:54:03.959Z,100835.47
2023-05-01T09:56:34.128Z,100838.81
2023-05-01T09:59:17.151Z,100841.44
2023-05-01T10:01:46.629Z,100841.75
2023-05-01T10:04:14.991Z,100821.00
2023-05-01T10:06:42.619Z,100829.69
2023-05-01T10:09:17.780Z,100835.50
2023-05-01T10:11:52.107Z,100786.97
2023-05-01T10:14:20.490Z,100825.03
2023-05-01T10:16:49.637Z,100818.41
2023-05-01T10:19:18.013Z,100820.09
2023-05-01T10:21:45.757Z,100825.28
2023-05-01T10:24:15.241Z,100825.19
2023-05-01T10:26:43.624Z,100826.63
2023-05-01T10:29:12.742Z,100777.19
2023-05-01T10:31:42.465Z,100782.44
2023-05-01T10:34:16.695Z,100774.97
2023-05-01T10:36:49.315Z,100803.63
2023-05-01T10:39:32.743Z,100815.19
2023-05-01T10:42:11.546Z,100807.84
2023-05-01T10:44:39.520Z,100804.94
2023-05-01T10:47:34.899Z,100801.62
2023-05-01T10:50:13.290Z,100803.09
2023-05-01T10:53:12.157Z,100761.59
2023-05-01T10:55:44.938Z,100795.88
2023-05-01T10:58:14.829Z,100792.56
2023-05-01T11:00:42.440Z,100787.19
2023-05-01T11:03:21.741Z,100779.72
2023-05-01T11:06:03.811Z,100784.69
2023-05-01T11:08:39.104Z,100759.47
2023-05-01T11:11:22.811Z,100754.44
2023-05-01T11:14:00.595Z,100789.16
2023-05-01T11:16:37.700Z,100784.94
2023-05-01T11:19:07.051Z,100781.34
2023-05-01T11:21:36.989Z,100776.75
2023-05-01T11:24:05.828Z,100767.25
2023-05-01T11:26:38.418Z,100748.16
2023-05-01T11:29:06.958Z,100764.56
2023-05-01T11:31:34.969Z,100760.28
2023-05-01T11:34:03.467Z,100756.41
2023-05-01T11:36:52.016Z,100765.47
2023-05-01T11:39:20.467Z,100756.56
2023-05-01T11:41:48.563Z,100735.97
2023-05-01T11:44:17.588Z,100755.91
2023-05-01T11:46:45.132Z,100757.41
2023-05-01T11:49:12.987Z,100753.78
2023-05-01T11:51:40.724Z,100757.62
2023-05-01T11:54:09.904Z,100756.06
2023-05-01T11:56:38.327Z,100736.34
2023-05-01T11:59:16.142Z,100743.53
2023-05-01T12:01:47.277Z,100723.44
2023-05-01T12:04:28.799Z,100741.38
2023-05-01T12:06:59.070Z,100730.53
2023-05-01T12:09:27.510Z,100734.56
2023-05-01T12:11:55.752Z,100736.38
2023-05-01T12:14:24.462Z,100728.13
2023-05-01T12:16:52.467Z,100726.34
2023-05-01T12:19:21.704Z,100732.31
2023-05-01T12:21:49.369Z,100729.38
2023-05-01T12:24:18.925Z,100726.19
2023-05-01T12:26:47.020Z,100725.47
2023-05-01T12:29:14.577Z,100725.22
2023-05-01T12:31:50.048Z,100688.63
2023-05-01T12:34:17.941Z,100706.41
2023-05-01T12:36:54.095Z,100718.97
2023-05-01T12:39:23.615Z,100713.88
2023-05-01T12:41:51.816Z,100677.66
2023-05-01T12:44:32.672Z,100696.16
2023-05-01T12:47:08.075Z,100702.91
2023-05-01T12:49:37.442Z,100704.19
2023-05-01T12:52:07.840Z,100694.94
2023-05-01T12:54:37.783Z,100703.66
2023-05-01T12:57:11.086Z,100697.56
2023-05-01T12:59:40.343Z,100699.69
2023-05-01T13:02:12.969Z,100694.13
2023-05-01T13:04:41.460Z,100695.03
2023-05-01T13:07:14.918Z,100687.41
2023-05-01T13:09:55.380Z,100697.56
2023-05-01T13:12:24.395Z,100646.72
2023-05-01T13:14:52.432Z,100686.88
2023-05-01T13:17:31.385Z,100679.94
2023-05-01T13:20:01.410Z,100678.78
2023-05-01T13:22:37.766Z,100683.31
2023-05-01T13:25:16.012Z,100661.94
2023-05-01T13:27:53.632Z,100670.22
2023-05-01T13:30:31.881Z,100662.25
2023-05-01T13:33:00.443Z,100659.78
2023-05-01T13:35:28.389Z,100664.72
2023-05-01T13:37:55.788Z,100658.88
2023-05-01T13:40:26.063Z,100657.59
2023-05-01T13:42:56.684Z,100615.28
2023-05-01T13:45:24.881Z,100652.44
2023-05-01T13:47:52.701Z,100651.50
2023-05-01T13:50:21.517Z,100647.75
2023-05-01T13:52:49.060Z,100608.50
2023-05-01T13:55:17.742Z,100637.78
2023-05-01T13:57:45.614Z,100601.66
2023-05-01T14:00:18.040Z,100621.97
2023-05-01T14:02:48.836Z,100631.69
2023-05-01T14:05:16.879Z,100630.19
2023-05-01T14:07:58.356Z,100625.16
2023-05-01T14:10:28.241Z,100621.72
2023-05-01T14:12:57.985Z,100611.06
2023-05-01T14:15:25.901Z,100615.16
2023-05-01T14:17:53.509Z,100622.91
2023-05-01T14:20:21.251Z,100616.22
2023-05-01T14:22:52.503Z,100621.94
2023-05-01T14:25:33.074Z,100614.94
2023-05-01T14:28:05.200Z,100612.00
2023-05-01T14:30:37.580Z,100608.72
2023-05-01T14:33:07.745Z,100608.75
2023-05-01T14:35:36.371Z,100604.53
2023-05-01T14:38:12.950Z,100609.53
2023-05-01T14:40:44.220Z,100602.63
2023-05-01T14:43:17.957Z,100595.28
2023-05-01T14:45:46.733Z,100592.53
2023-05-01T14:48:22.927Z,100583.81
2023-05-01T14:50:51.844Z,100583.69
2023-05-01T14:53:19.559Z,100578.53
2023-05-01T14:55:51.358Z,100582.53
2023-05-01T14:58:19.088Z,100552.94
2023-05-01T15:00:46.659Z,100583.41
2023-05-01T15:03:14.401Z,100585.97
2023-05-01T15:05:42.286Z,100588.09
2023-05-01T15:08:10.239Z,100545.25
2023-05-01T15:10:38.716Z,100590.78
2023-05-01T15:13:06.741Z,100538.06
2023-05-01T15:15:34.280Z,100529.59
2023-05-01T15:18:02.559Z,100564.19
2023-05-01T15:20:31.437Z,100569.06
2023-05-01T15:22:58.923Z,100558.53
2023-05-01T15:25:26.379Z,100559.72
2023-05-01T15:27:55.137Z,100563.41
2023-05-01T15:30:22.996Z,100567.28
2023-05-01T15:32:51.770Z,100552.41
2023-05-01T15:35:21.459Z,100561.31
2023-05-01T15:37:49.240Z,100566.06
2023-05-01T15:40:16.917Z,100559.88
2023-05-01T15:42:48.063Z,100552.63
2023-05-01T15:45:15.573Z,100557.78
2023-05-01T15:47:43.118Z,100547.91
2023-05-01T15:50:14.462Z,100519.03
2023-05-01T15:52:41.976Z,100559.22
2023-05-01T15:55:09.742Z,100546.31
2023-05-01T15:57:37.675Z,100549.72
2023-05-01T16:00:06.232Z,100555.00
2023-05-01T16:02:34.279Z,100559.41
2023-05-01T16:05:01.819Z,100556.16
2023-05-01T16:07:29.798Z,100556.00
2023-05-01T16:09:58.248Z,100559.88
2023-05-01T16:12:29.656Z,100515.84
2023-05-01T16:15:01.038Z,100557.41
2023-05-01T16:17:30.814Z,100550.88
2023-05-01T16:20:01.142Z,100511.47
2023-05-01T16:22:29.038Z,100556.97
2023-05-01T16:24:58.081Z,100521.19
2023-05-01T16:27:25.839Z,100555.16
2023-05-01T16:29:53.506Z,100559.31
2023-05-01T16:32:21.121Z,100550.25
2023-05-01T16:34:49.341Z,100546.59
2023-05-01T16:37:17.523Z,100553.56
2023-05-01T16:39:46.781Z,100555.84
2023-05-01T16:42:14.830Z,100547.34
2023-05-01T16:44:42.639Z,100550.62
2023-05-01T16:47:12.131Z,100550.22
2023-05-01T16:49:42.812Z,100554.31
2023-05-01T16:52:14.124Z,100550.41
2023-05-01T16:54:41.906Z,100556.38
2023-05-01T16:57:09.615Z,100506.09
2023-05-01T16:59:37.548Z,100548.53
2023-05-01T17:02:06.524Z,100532.84
2023-05-01T17:04:34.303Z,100510.06
2023-05-01T17:07:01.840Z,100550.03
2023-05-01T17:09:30.031Z,100517.00
2023-05-01T17:11:59.005Z,100515.91
2023-05-01T17:14:28.798Z,100519.75
2023-05-01T17:16:59.578Z,100568.34
2023-05-01T17:19:27.311Z,100558.19
2023-05-01T17:21:54.835Z,100514.00
2023-05-01T17:24:23.242Z,100555.63
2023-05-01T17:26:50.866Z,100562.28
2023-05-01T17:29:18.681Z,100553.56
2023-05-01T17:31:46.688Z,100550.81
2023-05-01T17:34:14.164Z,100552.97
2023-05-01T17:36:41.636Z,100549.00
2023-05-01T17:39:09.299Z,100554.84
2023-05-01T17:41:37.786Z,100548.19
2023-05-01T17:44:05.430Z,100553.81
2023-05-01T17:46:33.509Z,100545.50
2023-05-01T17:49:01.201Z,100550.06
2023-05-01T17:51:29.314Z,100553.22
2023-05-01T17:53:57.970Z,100541.84
2023-05-01T17:56:25.852Z,100506.13
2023-05-01T17:58:54.345Z,100511.00
2023-05-01T18:01:22.878Z,100542.47
2023-05-01T18:03:52.556Z,100547.25
2023-05-01T18:06:20.371Z,100551.00
2023-05-01T18:08:50.120Z,100543.75
2023-05-01T18:11:18.352Z,100550.19
2023-05-01T18:13:48.149Z,100543.91
2023-05-01T18:16:16.066Z,100550.78
2023-05-01T18:18:44.442Z,100547.19
2023-05-01T18:21:12.764Z,100550.56
2023-05-01T18:23:40.962Z,100550.50
2023-05-01T18:26:09.144Z,100547.88
2023-05-01T18:28:36.920Z,100549.63
2023-05-01T18:31:04.409Z,100550.31
2023-05-01T18:33:32.415Z,100561.66
2023-05-01T18:36:00.138Z,100553.75
2023-05-01T18:38:28.598Z,100556.28
2023-05-01T18:40:56.388Z,100554.53
2023-05-01T18:43:23.856Z,100561.88
2023-05-01T18:45:52.147Z,100555.87
2023-05-01T18:48:20.157Z,100511.56
2023-05-01T18:51:00.782Z,100560.25
2023-05-01T18:53:36.552Z,100561.59
2023-05-01T18:56:04.914Z,100555.00
2023-05-01T18:58:32.555Z,100566.94
2023-05-01T19:01:03.848Z,100514.84
2023-05-01T19:03:31.685Z,100556.03
2023-05-01T19:05:59.526Z,100562.66
2023-05-01T19:08:27.772Z,100563.22
2023-05-01T19:10:55.459Z,100571.88
2023-05-01T19:13:22.976Z,100569.22
2023-05-01T19:15:51.011Z,100571.38
2023-05-01T19:18:18.627Z,100522.75
2023-05-01T19:20:46.356Z,100575.75
2023-05-01T19:23:14.631Z,100577.75
2023-05-01T19:25:42.634Z,100577.94
2023-05-01T19:28:10.852Z,100583.09
2023-05-01T19:30:38.849Z,100570.22
2023-05-01T19:33:06.824Z,100542.75
2023-05-01T19:35:35.273Z,100588.78
2023-05-01T19:38:03.423Z,100584.50
2023-05-01T19:40:31.913Z,100579.19
2023-05-01T19:43:00.375Z,100584.16
2023-05-01T19:45:28.413Z,100585.50
2023-05-01T19:47:56.216Z,100586.81
2023-05-01T19:50:24.122Z,100581.19
2023-05-01T19:52:53.092Z,100588.84
2023-05-01T19:55:20.630Z,100586.22
2023-05-01T19:57:48.134Z,100589.72
2023-05-01T20:00:16.996Z,100585.06
2023-05-01T20:02:45.257Z,100538.84
2023-05-01T20:05:13.941Z,100536.53
2023-05-01T20:07:42.705Z,100586.09
2023-05-01T20:10:10.975Z,100582.44
2023-05-01T20:12:38.564Z,100577.28
2023-05-01T20:15:07.127Z,100583.75
2023-05-01T20:17:35.356Z,100585.75
2023-05-01T20:20:03.268Z,100589.19
2023-05-01T20:22:30.956Z,100592.87
2023-05-01T20:24:58.875Z,100589.87
2023-05-01T20:27:26.828Z,100583.75
2023-05-01T20:29:54.415Z,100586.56
2023-05-01T20:32:22.134Z,100589.87
2023-05-01T20:34:49.736Z,100540.38
2023-05-01T20:37:17.161Z,100586.91
2023-05-01T20:39:45.372Z,100592.53
2023-05-01T20:42:13.038Z,100590.91
2023-05-01T20:44:40.471Z,100594.88
2023-05-01T20:47:09.472Z,100590.88
2023-05-01T20:49:36.935Z,100596.34
2023-05-01T20:52:04.482Z,100591.19
2023-05-01T20:54:32.929Z,100595.84
2023-05-01T20:57:01.879Z,100590.38
2023-05-01T20:59:29.860Z,100596.69
2023-05-01T21:01:57.709Z,100600.13
2023-05-01T21:04:25.279Z,100576.59
2023-05-01T21:06:52.842Z,100599.28
2023-05-01T21:09:20.743Z,100605.72
2023-05-01T21:11:48.155Z,100578.38
2023-05-01T21:14:16.224Z,100608.19
2023-05-01T21:16:44.014Z,100568.09
2023-05-01T21:19:13.170Z,100601.41
2023-05-01T21:21:40.968Z,100616.63
2023-05-01T21:24:20.329Z,100604.53
2023-05-01T21:26:47.938Z,100582.47
2023-05-01T21:29:16.754Z,100603.19
2023-05-01T21:31:44.958Z,100609.97
2023-05-01T21:34:14.974Z,100613.31
2023-05-01T21:36:46.877Z,100616.94
2023-05-01T21:39:14.483Z,100611.50
2023-05-01T21:41:42.023Z,100618.75
2023-05-01T21:44:09.879Z,100570.66
2023-05-01T21:46:38.595Z,100618.25
2023-05-01T21:49:06.643Z,100570.16
2023-05-01T21:51:35.845Z,100581.56
2023-05-01T21:54:04.378Z,100632.63
2023-05-01T21:56:31.998Z,100632.81
2023-05-01T21:59:01.994Z,100638.94
2023-05-01T22:01:29.681Z,100631.97
2023-05-01T22:03:58.238Z,100640.22
2023-05-01T22:06:25.846Z,100636.75
2023-05-01T22:08:53.950Z,100640.53
2023-05-01T22:11:23.243Z,100632.06
2023-05-01T22:13:50.658Z,100579.97
2023-05-01T22:16:18.177Z,100638.16
2023-05-01T22:18:48.061Z,100640.59
2023-05-01T22:21:17.523Z,100631.78
2023-05-01T22:23:45.502Z,100580.88
2023-05-01T22:26:13.376Z,100635.59
2023-05-01T22:28:41.139Z,100628.97
2023-05-01T22:31:08.547Z,100630.13
2023-05-01T22:33:37.013Z,100626.28
2023-05-01T22:36:07.361Z,100624.91
2023-05-01T22:38:36.263Z,100634.47
2023-05-01T22:41:04.216Z,100626.84
2023-05-01T22:43:31.997Z,100623.69
2023-05-01T22:45:59.653Z,100631.56
2023-05-01T22:48:27.539Z,100618.81
2023-05-01T22:50:55.341Z,100626.72
2023-05-01T22:53:22.837Z,100625.00
2023-05-01T22:55:51.076Z,100636.91
2023-05-01T22:58:19.029Z,100630.78
2023-05-01T23:00:46.888Z,100594.56
2023-05-01T23:03:15.529Z,100585.00
2023-05-01T23:05:43.777Z,100630.59
2023-05-01T23:08:11.352Z,100624.78
2023-05-01T23:10:42.666Z,100601.75
2023-05-01T23:13:19.730Z,100576.22
2023-05-01T23:15:49.683Z,100624.72
2023-05-01T23:18:25.672Z,100618.72
2023-05-01T23:20:55.536Z,100620.69
2023-05-01T23:23:29.364Z,100613.16
2023-05-01T23:25:57.468Z,100610.50
2023-05-01T23:28:26.490Z,100603.84
2023-05-01T23:30:55.759Z,100609.13
2023-05-01T23:33:50.462Z,100615.31
2023-05-01T23:36:18.419Z,100605.66
2023-05-01T23:38:47.307Z,100608.16
2023-05-01T23:41:15.346Z,100603.69
2023-05-01T23:43:43.765Z,100605.06
2023-05-01T23:46:11.890Z,100600.44
2023-05-01T23:48:39.921Z,100551.50
2023-05-01T23:51:07.548Z,100544.41
2023-05-01T23:53:35.512Z,100597.81
2023-05-01T23:56:03.685Z,100596.84
2023-05-01T23:58:31.210Z,100603.09
